createdAt,value
2023-02-22T00:00:59.995Z,7.22
2023-02-22T00:03:35.190Z,8.52
2023-02-22T00:06:05.382Z,7.57
2023-02-22T00:08:36.665Z,8.75
2023-02-22T00:11:08.808Z,5.38
2023-02-22T00:13:38.150Z,9.93
2023-02-22T00:16:06.444Z,6.80
2023-02-22T00:18:34.059Z,7.83
2023-02-22T00:21:01.930Z,6.60
2023-02-22T00:23:31.243Z,6.72
2023-02-22T00:26:00.408Z,6.10
2023-02-22T00:28:28.107Z,7.88
2023-02-22T00:30:56.102Z,6.13
2023-02-22T00:33:23.867Z,6.60
2023-02-22T00:35:51.843Z,6.68
2023-02-22T00:38:19.751Z,6.50
2023-02-22T00:40:47.253Z,6.85
2023-02-22T00:43:15.118Z,8.07
2023-02-22T00:45:43.294Z,5.22
2023-02-22T00:48:11.139Z,5.78
2023-02-22T00:50:38.870Z,5.93
2023-02-22T00:53:07.491Z,6.65
2023-02-22T00:55:37.270Z,4.83
2023-02-22T00:58:06.347Z,3.80
2023-02-22T01:00:35.488Z,5.53
2023-02-22T01:03:05.061Z,5.05
2023-02-22T01:05:33.435Z,6.10
2023-02-22T01:08:02.467Z,4.80
2023-02-22T01:10:31.379Z,3.67
2023-02-22T01:13:00.310Z,3.78
2023-02-22T01:15:30.831Z,3.17
2023-02-22T01:17:59.825Z,4.00
2023-02-22T01:20:29.287Z,3.80
2023-02-22T01:22:59.594Z,3.13
2023-02-22T01:25:29.729Z,4.50
2023-02-22T01:27:59.073Z,5.93
2023-02-22T01:30:29.902Z,4.57
2023-02-22T01:32:58.713Z,2.80
2023-02-22T01:35:29.602Z,2.17
2023-02-22T01:37:58.241Z,2.72
2023-02-22T01:40:38.921Z,1.75
2023-02-22T01:43:15.857Z,1.50
2023-02-22T01:45:48.950Z,1.33
2023-02-22T01:48:37.433Z,0.73
2023-02-22T01:51:25.694Z,0.65
2023-02-22T01:53:53.280Z,1.50
2023-02-22T01:56:23.301Z,1.10
2023-02-22T01:59:03.752Z,0.83
2023-02-22T02:01:31.316Z,0.32
2023-02-22T02:04:02.636Z,0.45
2023-02-22T02:06:33.655Z,0.20
2023-02-22T02:09:05.927Z,0.10
2023-02-22T02:11:33.878Z,1.90
2023-02-22T02:14:01.521Z,0.28
2023-02-22T02:16:56.366Z,0.85
2023-02-22T02:19:29.053Z,0.77
2023-02-22T02:22:02.502Z,0.00
2023-02-22T02:24:50.376Z,0.30
2023-02-22T02:27:33.653Z,1.48
2023-02-22T02:30:31.090Z,1.23
2023-02-22T02:33:21.630Z,2.10
2023-02-22T02:35:51.369Z,0.20
2023-02-22T02:38:47.707Z,1.40
2023-02-22T02:41:37.899Z,0.10
2023-02-22T02:44:09.940Z,1.50
2023-02-22T02:46:45.727Z,0.08
2023-02-22T02:49:19.027Z,0.90
2023-02-22T02:51:52.039Z,0.00
2023-02-22T02:54:22.755Z,0.80
2023-02-22T02:56:53.221Z,1.65
2023-02-22T02:59:28.502Z,0.15
2023-02-22T03:02:26.410Z,0.15
2023-02-22T03:05:07.473Z,0.60
2023-02-22T03:07:56.825Z,1.55
2023-02-22T03:11:02.995Z,0.20
2023-02-22T03:13:40.675Z,0.15
2023-02-22T03:16:12.095Z,0.00
2023-02-22T03:18:39.680Z,0.00
2023-02-22T03:21:22.574Z,0.10
2023-02-22T03:23:53.323Z,0.57
2023-02-22T03:26:42.175Z,0.57
2023-02-22T03:29:12.562Z,1.00
2023-02-22T03:31:49.106Z,0.00
2023-02-22T03:34:28.642Z,0.77
2023-02-22T03:37:02.686Z,0.38
2023-02-22T03:39:31.978Z,0.77
2023-02-22T03:42:31.413Z,0.00
2023-02-22T03:45:05.153Z,0.10
2023-02-22T03:47:41.548Z,1.10
2023-02-22T03:50:17.008Z,1.65
2023-02-22T03:52:47.544Z,2.50
2023-02-22T03:55:23.788Z,0.85
2023-02-22T03:57:56.882Z,0.20
2023-02-22T04:00:28.114Z,0.98
2023-02-22T04:02:56.363Z,1.05
2023-02-22T04:05:25.136Z,0.30
2023-02-22T04:07:55.016Z,0.52
2023-02-22T04:10:23.995Z,0.00
2023-02-22T04:12:51.795Z,0.32
2023-02-22T04:15:22.401Z,0.10
2023-02-22T04:17:55.164Z,0.93
2023-02-22T04:20:25.669Z,0.65
2023-02-22T04:22:59.104Z,1.40
2023-02-22T04:25:27.218Z,0.38
2023-02-22T04:27:54.906Z,0.00
2023-02-22T04:30:33.633Z,0.20
2023-02-22T04:33:02.045Z,0.00
2023-02-22T04:35:29.515Z,0.77
2023-02-22T04:37:58.265Z,1.80
2023-02-22T04:40:25.921Z,0.10
2023-02-22T04:42:53.481Z,0.93
2023-02-22T04:45:21.380Z,0.43
2023-02-22T04:47:49.278Z,1.37
2023-02-22T04:50:19.146Z,0.10
2023-02-22T04:52:47.544Z,1.80
2023-02-22T04:55:16.670Z,2.05
2023-02-22T04:57:44.719Z,2.45
2023-02-22T05:00:17.453Z,0.30
2023-02-22T05:02:45.731Z,1.17
2023-02-22T05:05:16.191Z,0.25
2023-02-22T05:07:43.813Z,1.95
2023-02-22T05:10:13.076Z,3.28
2023-02-22T05:12:40.711Z,0.43
2023-02-22T05:15:09.217Z,1.40
2023-02-22T05:17:37.139Z,1.85
2023-02-22T05:20:05.597Z,3.03
2023-02-22T05:22:33.206Z,0.60
2023-02-22T05:25:00.723Z,2.50
2023-02-22T05:27:28.285Z,1.35
2023-02-22T05:29:55.838Z,1.95
2023-02-22T05:32:23.661Z,2.25
2023-02-22T05:34:51.184Z,1.85
2023-02-22T05:37:18.757Z,1.47
2023-02-22T05:39:46.587Z,1.58
2023-02-22T05:42:14.127Z,1.58
2023-02-22T05:44:41.746Z,0.73
2023-02-22T05:47:09.296Z,1.30
2023-02-22T05:49:36.808Z,2.53
2023-02-22T05:52:04.856Z,1.05
2023-02-22T05:54:32.469Z,1.45
2023-02-22T05:57:00.043Z,1.25
2023-02-22T05:59:27.794Z,2.38
2023-02-22T06:01:55.374Z,1.00
2023-02-22T06:04:23.043Z,3.50
2023-02-22T06:06:50.653Z,1.85
2023-02-22T06:09:18.271Z,1.85
2023-02-22T06:11:45.900Z,1.38
2023-02-22T06:14:13.435Z,0.73
2023-02-22T06:16:41.010Z,1.10
2023-02-22T06:19:08.547Z,3.40
2023-02-22T06:21:36.114Z,2.97
2023-02-22T06:24:04.572Z,0.85
2023-02-22T06:26:32.140Z,1.30
2023-02-22T06:29:10.032Z,1.58
2023-02-22T06:31:37.763Z,1.08
2023-02-22T06:34:05.530Z,0.52
2023-02-22T06:36:33.123Z,2.35
2023-02-22T06:39:00.689Z,0.57
2023-02-22T06:41:28.309Z,0.45
2023-02-22T06:43:55.869Z,3.03
2023-02-22T06:46:23.449Z,0.77
2023-02-22T06:48:51.893Z,0.80
2023-02-22T06:51:19.583Z,2.27
2023-02-22T06:53:47.172Z,3.67
2023-02-22T06:56:14.676Z,1.10
2023-02-22T06:58:42.766Z,1.48
2023-02-22T07:01:10.445Z,2.90
2023-02-22T07:03:38.734Z,1.13
2023-02-22T07:06:07.848Z,1.42
2023-02-22T07:08:35.409Z,4.35
2023-02-22T07:11:03.760Z,2.40
2023-02-22T07:13:31.321Z,1.27
2023-02-22T07:15:58.896Z,2.07
2023-02-22T07:18:26.603Z,1.77
2023-02-22T07:20:54.496Z,1.75
2023-02-22T07:23:23.068Z,2.50
2023-02-22T07:25:50.803Z,2.58
2023-02-22T07:28:18.863Z,5.50
2023-02-22T07:30:46.501Z,3.70
2023-02-22T07:33:14.126Z,1.45
2023-02-22T07:35:47.498Z,1.42
2023-02-22T07:38:17.462Z,3.53
2023-02-22T07:40:46.022Z,4.57
2023-02-22T07:43:18.071Z,1.65
2023-02-22T07:45:51.908Z,3.03
2023-02-22T07:48:21.403Z,1.33
2023-02-22T07:50:49.661Z,2.20
2023-02-22T07:53:28.658Z,1.30
2023-02-22T07:55:58.532Z,3.33
2023-02-22T07:58:28.120Z,2.47
2023-02-22T08:00:56.008Z,3.30
2023-02-22T08:03:26.325Z,2.03
2023-02-22T08:05:56.353Z,1.20
2023-02-22T08:08:24.225Z,2.28
2023-02-22T08:10:53.039Z,2.72
2023-02-22T08:13:22.317Z,2.38
2023-02-22T08:15:53.438Z,2.20
2023-02-22T08:18:22.629Z,1.80
2023-02-22T08:20:52.224Z,4.15
2023-02-22T08:23:22.592Z,3.22
2023-02-22T08:25:50.200Z,2.80
2023-02-22T08:28:21.670Z,3.03
2023-02-22T08:30:50.278Z,2.00
2023-02-22T08:33:19.903Z,5.65
2023-02-22T08:35:49.858Z,7.40
2023-02-22T08:38:27.102Z,2.80
2023-02-22T08:40:55.008Z,5.20
2023-02-22T08:43:23.462Z,4.57
2023-02-22T08:45:52.195Z,4.10
2023-02-22T08:48:20.779Z,5.32
2023-02-22T08:50:48.498Z,5.28
2023-02-22T08:53:16.896Z,3.53
2023-02-22T08:55:44.924Z,4.47
2023-02-22T08:58:12.848Z,6.18
2023-02-22T09:00:41.638Z,7.75
2023-02-22T09:03:13.425Z,5.07
2023-02-22T09:05:43.045Z,3.50
2023-02-22T09:08:10.836Z,3.27
2023-02-22T09:10:39.032Z,3.95
2023-02-22T09:13:06.960Z,5.72
2023-02-22T09:15:38.455Z,4.10
2023-02-22T09:18:08.539Z,2.72
2023-02-22T09:20:36.419Z,7.43
2023-02-22T09:23:05.913Z,6.57
2023-02-22T09:25:36.571Z,3.33
2023-02-22T09:28:04.294Z,7.47
2023-02-22T09:30:34.492Z,8.25
2023-02-22T09:33:12.360Z,6.57
2023-02-22T09:35:47.757Z,5.15
2023-02-22T09:38:26.109Z,6.72
2023-02-22T09:41:07.795Z,3.03
2023-02-22T09:43:40.665Z,2.10
2023-02-22T09:46:30.912Z,5.80
2023-02-22T09:49:01.117Z,6.82
2023-02-22T09:51:50.767Z,9.25
2023-02-22T09:54:34.353Z,7.15
2023-02-22T09:57:08.763Z,27.10
2023-02-22T09:59:55.480Z,26.67
2023-02-22T10:02:34.737Z,9.02
2023-02-22T10:05:08.445Z,6.45
2023-02-22T10:07:53.973Z,5.05
2023-02-22T10:10:24.523Z,20.27
2023-02-22T10:13:04.090Z,16.87
2023-02-22T10:16:14.935Z,9.77
2023-02-22T10:18:42.626Z,5.72
2023-02-22T10:21:32.201Z,5.53
2023-02-22T10:24:07.504Z,7.13
2023-02-22T10:26:44.401Z,7.63
2023-02-22T10:29:14.860Z,8.15
2023-02-22T10:31:46.976Z,7.20
2023-02-22T10:34:24.906Z,4.60
2023-02-22T10:37:17.489Z,6.75
2023-02-22T10:39:48.497Z,6.37
2023-02-22T10:42:16.319Z,6.90
2023-02-22T10:44:44.051Z,4.75
2023-02-22T10:47:17.885Z,3.65
2023-02-22T10:50:00.781Z,7.10
2023-02-22T10:52:33.982Z,7.63
2023-02-22T10:55:14.631Z,3.35
2023-02-22T10:57:46.862Z,3.97
2023-02-22T11:00:14.609Z,5.88
2023-02-22T11:02:53.531Z,5.00
2023-02-22T11:05:36.930Z,7.27
2023-02-22T11:08:22.863Z,6.20
2023-02-22T11:10:55.755Z,4.15
2023-02-22T11:13:37.839Z,3.40
2023-02-22T11:16:31.998Z,3.20
2023-02-22T11:19:05.748Z,4.70
2023-02-22T11:21:34.011Z,3.90
2023-02-22T11:24:05.255Z,6.13
2023-02-22T11:27:01.474Z,7.15
2023-02-22T11:29:35.820Z,4.50
2023-02-22T11:32:14.937Z,6.27
2023-02-22T11:34:42.878Z,4.85
2023-02-22T11:37:34.814Z,7.80
2023-02-22T11:40:08.376Z,11.05
2023-02-22T11:42:35.978Z,9.90
2023-02-22T11:49:09.681Z,5.47
2023-02-22T11:51:55.666Z,7.15
2023-02-22T11:54:29.156Z,9.23
2023-02-22T11:57:05.365Z,4.82
2023-02-22T11:59:59.637Z,6.47
2023-02-22T12:02:56.977Z,6.53
2023-02-22T12:05:42.793Z,4.10
2023-02-22T12:08:24.684Z,4.13
2023-02-22T12:11:59.052Z,5.60
2023-02-22T12:14:56.511Z,6.93
2023-02-22T12:22:21.463Z,4.20
2023-02-22T12:25:09.110Z,6.10
2023-02-22T12:28:41.791Z,5.57
2023-02-22T12:32:50.311Z,7.80
2023-02-22T12:49:43.887Z,4.60
2023-02-22T12:53:05.484Z,13.73
2023-02-22T12:55:45.867Z,4.00
2023-02-22T12:58:35.244Z,4.15
2023-02-22T13:01:12.192Z,5.75
2023-02-22T13:03:42.645Z,4.77
2023-02-22T13:06:19.049Z,5.75
2023-02-22T13:09:26.724Z,3.88
2023-02-22T13:12:00.109Z,6.32
2023-02-22T13:14:50.939Z,4.20
2023-02-22T13:17:43.569Z,5.80
2023-02-22T13:20:11.081Z,3.47
2023-02-22T13:23:08.148Z,5.60
2023-02-22T13:25:45.684Z,4.80
2023-02-22T13:28:13.204Z,3.75
2023-02-22T13:30:51.329Z,6.03
2023-02-22T13:33:34.622Z,5.70
2023-02-22T13:36:32.112Z,3.97
2023-02-22T13:39:18.115Z,4.20
2023-02-22T13:42:10.074Z,4.60
2023-02-22T13:45:13.563Z,4.80
2023-02-22T13:47:52.476Z,5.78
2023-02-22T13:50:41.897Z,3.13
2023-02-22T13:53:16.966Z,4.93
2023-02-22T13:55:52.465Z,4.43
2023-02-22T13:58:21.092Z,4.20
2023-02-22T14:00:50.274Z,4.68
2023-02-22T14:03:36.281Z,4.78
2023-02-22T14:06:05.853Z,2.45
2023-02-22T14:08:36.202Z,3.17
2023-02-22T14:11:12.843Z,3.63
2023-02-22T14:13:53.780Z,5.45
2023-02-22T14:16:26.297Z,7.18
2023-02-22T14:19:20.877Z,4.55
2023-02-22T14:22:05.955Z,3.83
2023-02-22T14:24:47.028Z,3.87
2023-02-22T14:27:17.644Z,14.32
2023-02-22T14:29:55.368Z,4.78
2023-02-22T14:32:31.867Z,5.57
2023-02-22T14:35:30.077Z,2.72
2023-02-22T14:38:10.675Z,4.00
2023-02-22T14:40:38.490Z,3.83
2023-02-22T14:43:35.276Z,4.55
2023-02-22T14:46:05.461Z,4.68
2023-02-22T14:48:42.908Z,4.63
2023-02-22T14:51:48.956Z,4.20
2023-02-22T14:54:49.294Z,3.13
2023-02-22T14:57:50.717Z,3.05
2023-02-22T15:00:43.509Z,8.00
2023-02-22T15:07:31.493Z,2.97
2023-02-22T15:10:38.811Z,2.03
2023-02-22T15:13:33.883Z,3.17
2023-02-22T15:16:08.880Z,5.60
2023-02-22T15:18:52.483Z,11.15
2023-02-22T15:21:54.346Z,3.03
2023-02-22T15:24:26.721Z,3.90
2023-02-22T15:27:02.179Z,2.30
2023-02-22T15:33:42.522Z,9.43
2023-02-22T15:36:16.832Z,3.77
2023-02-22T15:38:50.515Z,3.97
2023-02-22T15:41:28.968Z,3.40
2023-02-22T15:44:22.751Z,5.00
2023-02-22T15:46:52.326Z,5.75
2023-02-22T15:49:23.493Z,4.87
2023-02-22T15:52:05.941Z,3.00
2023-02-22T15:54:46.137Z,1.63
2023-02-22T15:57:16.319Z,5.00
2023-02-22T15:59:48.796Z,3.35
2023-02-22T16:02:42.562Z,3.57
2023-02-22T16:05:13.255Z,3.90
2023-02-22T16:07:48.649Z,2.78
2023-02-22T16:10:35.455Z,4.20
2023-02-22T16:13:31.529Z,6.05
2023-02-22T16:16:03.316Z,2.07
2023-02-22T16:18:39.300Z,2.80
2023-02-22T16:21:15.406Z,2.45
2023-02-22T16:23:59.113Z,3.60
2023-02-22T16:26:31.702Z,3.90
2023-02-22T16:29:01.253Z,4.10
2023-02-22T16:31:33.949Z,2.80
2023-02-22T16:34:06.577Z,5.75
2023-02-22T16:36:40.606Z,4.40
2023-02-22T16:39:14.201Z,3.58
2023-02-22T16:41:41.994Z,2.00
2023-02-22T16:44:13.013Z,3.00
2023-02-22T16:46:42.003Z,4.25
2023-02-22T16:49:11.735Z,3.78
2023-02-22T16:51:46.388Z,4.00
2023-02-22T16:54:20.843Z,18.80
2023-02-22T16:56:48.439Z,3.45
2023-02-22T16:59:17.273Z,6.10
2023-02-22T17:01:46.512Z,5.78
2023-02-22T17:04:20.804Z,5.15
2023-02-22T17:06:48.956Z,2.23
2023-02-22T17:09:17.027Z,4.13
2023-02-22T17:11:44.938Z,4.68
2023-02-22T17:14:18.114Z,1.58
2023-02-22T17:16:47.188Z,2.00
2023-02-22T17:19:26.166Z,3.03
2023-02-22T17:21:53.778Z,2.80
2023-02-22T17:24:24.211Z,2.60
2023-02-22T17:26:57.692Z,2.20
2023-02-22T17:29:27.940Z,2.75
2023-02-22T17:31:56.323Z,2.63
2023-02-22T17:34:25.045Z,3.17
2023-02-22T17:36:52.760Z,3.40
2023-02-22T17:39:20.413Z,6.50
2023-02-22T17:41:51.576Z,4.85
2023-02-22T17:44:20.086Z,1.47
2023-02-22T17:46:47.653Z,2.88
2023-02-22T17:49:15.461Z,2.35
2023-02-22T17:51:43.190Z,2.72
2023-02-22T17:54:10.778Z,3.53
2023-02-22T17:56:38.298Z,2.40
2023-02-22T17:59:09.227Z,1.33
2023-02-22T18:01:37.373Z,0.98
2023-02-22T18:04:05.432Z,2.45
2023-02-22T18:06:33.212Z,4.40
2023-02-22T18:09:01.204Z,0.80
2023-02-22T18:11:32.602Z,0.52
2023-02-22T18:14:01.238Z,2.72
2023-02-22T18:16:29.094Z,2.25
2023-02-22T18:18:56.985Z,1.08
2023-02-22T18:21:26.894Z,1.27
2023-02-22T18:23:55.076Z,1.20
2023-02-22T18:26:24.643Z,1.25
2023-02-22T18:28:53.880Z,2.42
2023-02-22T18:31:23.087Z,0.98
2023-02-22T18:33:52.562Z,2.73
2023-02-22T18:36:24.166Z,1.25
2023-02-22T18:38:53.830Z,1.45
2023-02-22T18:41:26.428Z,1.50
2023-02-22T18:44:00.502Z,2.17
2023-02-22T18:46:31.523Z,1.43
2023-02-22T18:48:59.632Z,2.10
2023-02-22T18:51:28.903Z,1.20
2023-02-22T18:54:00.694Z,0.95
2023-02-22T18:56:34.105Z,2.50
2023-02-22T18:59:03.406Z,2.50
2023-02-22T19:01:31.774Z,1.90
2023-02-22T19:04:00.535Z,1.65
2023-02-22T19:06:28.574Z,2.33
2023-02-22T19:08:56.269Z,2.58
2023-02-22T19:11:24.837Z,2.57
2023-02-22T19:13:54.725Z,2.53
2023-02-22T19:16:24.151Z,4.50
2023-02-22T19:18:57.547Z,2.47
2023-02-22T19:21:28.007Z,3.60
2023-02-22T19:24:01.275Z,2.07
2023-02-22T19:26:29.730Z,3.45
2023-02-22T19:28:58.851Z,2.85
2023-02-22T19:31:33.816Z,4.10
2023-02-22T19:34:09.103Z,3.55
2023-02-22T19:36:42.123Z,5.23
2023-02-22T19:39:09.832Z,2.47
2023-02-22T19:41:38.208Z,4.90
2023-02-22T19:44:06.448Z,3.95
2023-02-22T19:46:34.098Z,7.78
2023-02-22T19:49:02.951Z,3.97
2023-02-22T19:51:32.226Z,2.92
2023-02-22T19:54:02.641Z,5.15
2023-02-22T19:56:31.552Z,3.05
2023-02-22T19:59:09.430Z,5.55
2023-02-22T20:01:38.027Z,5.27
2023-02-22T20:04:08.238Z,3.13
2023-02-22T20:06:40.433Z,3.95
2023-02-22T20:09:11.036Z,5.25
2023-02-22T20:11:38.746Z,4.70
2023-02-22T20:14:06.771Z,4.43
2023-02-22T20:16:35.826Z,4.38
2023-02-22T20:19:03.918Z,5.82
2023-02-22T20:21:33.968Z,6.47
2023-02-22T20:24:05.317Z,3.90
2023-02-22T20:26:35.609Z,9.60
2023-02-22T20:29:04.906Z,5.03
2023-02-22T20:31:32.656Z,3.85
2023-02-22T20:34:01.294Z,2.75
2023-02-22T20:36:30.618Z,4.80
2023-02-22T20:38:59.914Z,5.23
2023-02-22T20:41:31.113Z,4.35
2023-02-22T20:44:00.544Z,4.45
2023-02-22T20:46:31.662Z,6.82
2023-02-22T20:49:01.542Z,8.00
2023-02-22T20:51:29.868Z,5.07
2023-02-22T20:54:00.105Z,4.95
2023-02-22T20:56:30.229Z,6.80
2023-02-22T20:59:00.202Z,5.10
2023-02-22T21:01:28.007Z,5.22
2023-02-22T21:04:03.577Z,7.90
2023-02-22T21:06:31.387Z,5.78
2023-02-22T21:09:00.305Z,6.07
2023-02-22T21:11:33.011Z,8.30
2023-02-22T21:14:04.802Z,4.00
2023-02-22T21:16:35.747Z,5.00
2023-02-22T21:19:05.927Z,4.22
2023-02-22T21:21:35.233Z,7.13
2023-02-22T21:24:03.280Z,4.75
2023-02-22T21:26:34.182Z,6.43
2023-02-22T21:29:05.218Z,5.23
2023-02-22T21:31:34.239Z,7.45
2023-02-22T21:34:02.392Z,3.97
2023-02-22T21:36:32.013Z,7.90
2023-02-22T21:39:08.402Z,7.60
2023-02-22T21:41:39.152Z,4.23
2023-02-22T21:44:08.631Z,5.80
2023-02-22T21:46:36.268Z,3.08
2023-02-22T21:49:03.918Z,5.55
2023-02-22T21:51:32.884Z,4.80
2023-02-22T21:54:03.321Z,6.03
2023-02-22T21:56:34.443Z,6.25
2023-02-22T21:59:05.453Z,5.13
2023-02-22T22:01:35.874Z,5.60
2023-02-22T22:04:04.570Z,6.03
2023-02-22T22:06:34.457Z,5.23
2023-02-22T22:12:54.574Z,12.68
2023-02-22T22:15:23.620Z,7.57
2023-02-22T22:17:52.258Z,5.75
2023-02-22T22:20:22.016Z,8.00
2023-02-22T22:22:49.946Z,6.60
2023-02-22T22:25:17.538Z,3.60
2023-02-22T22:27:45.156Z,4.38
2023-02-22T22:30:13.323Z,4.60
2023-02-22T22:32:40.930Z,4.27
2023-02-22T22:35:14.646Z,4.75
2023-02-22T22:37:43.366Z,2.85
2023-02-22T22:40:15.730Z,5.95
2023-02-22T22:51:11.153Z,7.68
2023-02-22T22:53:41.907Z,6.82
2023-02-22T22:56:19.309Z,9.05
2023-02-22T22:58:51.231Z,8.48
2023-02-22T23:01:27.043Z,13.60
2023-02-22T23:04:02.103Z,9.68
2023-02-22T23:07:04.257Z,11.32
2023-02-22T23:09:56.634Z,10.98
2023-02-22T23:16:12.274Z,9.87
2023-02-22T23:18:43.265Z,8.38
2023-02-22T23:21:11.559Z,7.63
2023-02-22T23:23:39.133Z,6.68
2023-02-22T23:26:18.969Z,7.35
2023-02-22T23:28:48.435Z,11.40
2023-02-22T23:31:18.106Z,7.30
2023-02-22T23:33:49.592Z,6.32
2023-02-22T23:36:18.571Z,5.97
2023-02-22T23:42:13.947Z,3.90
2023-02-22T23:42:33.348Z,11.87
2023-02-22T23:45:00.968Z,9.45
2023-02-22T23:47:31.844Z,4.22
2023-02-22T23:49:59.453Z,8.85
2023-02-22T23:52:43.091Z,6.60
